Terminal Aerodrome Forecast
Issued by NWS Central Illinois

Home | Current Version | Previous Version | Text Only | Print | Product List | Glossary On
Versions: 1 2 3 4 5 6 7 8 9 10 11 12
000
FTUS43 KILX 231738
TAFPIA
TAF
KPIA 231738Z 2318/2418 06012KT P6SM BKN100
     FM240600 04005KT P6SM OVC025
     FM241300 02005KT P6SM SCT008 OVC015
     FM241700 02010KT P6SM OVC020=

USA.gov is the U.S. government's official web portal to all federal, state and local government web resources and services.